Time;durP1;ratioP1;P1;durP2;ratioP2;P2;SDS_P1;SDS_P2;PMS_P1;PMS_P2;Temp;Humidity;BMP_temperature;BMP_pressure;BME280_temperature;BME280_humidity;BME280_pressure;Samples;Min_cycle;Max_cycle;Signal;HPM_P1;HPM_P2
2021/05/01 00:01:04;;;;;;;41.75;24.63;;;;;;;4.90;93.01;98541.47;5034414;28;20032;-69
2021/05/01 00:03:29;;;;;;;39.70;23.58;;;;;;;4.88;92.36;98538.13;5034722;28;20024;-70
2021/05/01 00:05:54;;;;;;;40.75;24.25;;;;;;;4.82;92.85;98541.47;5052290;28;20036;-71
2021/05/01 00:08:19;;;;;;;40.83;23.88;;;;;;;4.66;92.43;98512.88;5052105;28;20375;-71
2021/05/01 00:10:45;;;;;;;44.78;24.38;;;;;;;4.94;92.66;98515.13;5034131;28;20163;-69
2021/05/01 00:13:11;;;;;;;43.33;25.08;;;;;;;4.92;92.04;98523.34;5034191;28;20043;-69
2021/05/01 00:15:37;;;;;;;42.75;24.58;;;;;;;4.84;92.18;98513.47;5036738;28;20021;-70
2021/05/01 00:18:02;;;;;;;42.33;23.58;;;;;;;4.79;92.65;98515.00;5052274;28;20025;-69
2021/05/01 00:20:28;;;;;;;43.08;23.92;;;;;;;4.93;92.19;98519.66;5060587;28;20440;-71
2021/05/01 00:22:53;;;;;;;40.50;23.48;;;;;;;4.87;92.59;98517.66;5049588;28;20121;-70
2021/05/01 00:25:18;;;;;;;43.28;23.63;;;;;;;4.89;92.66;98517.50;5033380;28;20047;-69
2021/05/01 00:27:43;;;;;;;45.60;23.52;;;;;;;4.93;93.05;98516.97;5051786;28;20498;-70
2021/05/01 00:30:09;;;;;;;42.25;22.95;;;;;;;4.90;92.78;98522.69;5034648;28;20390;-70
2021/05/01 00:32:35;;;;;;;42.97;24.42;;;;;;;4.90;92.97;98530.75;5047393;28;20059;-70
2021/05/01 00:35:02;;;;;;;38.90;23.08;;;;;;;4.81;92.86;98521.03;5032157;28;20029;-70
2021/05/01 00:37:28;;;;;;;39.65;23.75;;;;;;;4.69;92.73;98509.03;5050679;28;20035;-71
2021/05/01 00:39:53;;;;;;;38.75;23.17;;;;;;;4.64;93.29;98531.00;5036276;28;20028;-70
2021/05/01 00:42:19;;;;;;;42.90;23.55;;;;;;;4.59;93.37;98523.47;5054245;28;20477;-72
2021/05/01 00:44:44;;;;;;;41.92;23.55;;;;;;;4.56;92.99;98531.84;5054017;28;20504;-70
2021/05/01 00:47:09;;;;;;;47.75;25.08;;;;;;;4.51;93.15;98528.84;5071806;28;20035;-69
2021/05/01 00:49:34;;;;;;;41.92;23.30;;;;;;;4.31;93.88;98493.56;5058332;28;20028;-71
2021/05/01 00:52:00;;;;;;;44.50;24.92;;;;;;;4.37;93.93;98518.81;5054253;28;20363;-70
2021/05/01 00:54:25;;;;;;;43.53;23.63;;;;;;;4.23;93.92;98498.13;5033032;28;20032;-70
2021/05/01 00:56:51;;;;;;;48.28;24.83;;;;;;;4.29;94.01;98500.09;5051750;28;20474;-69
2021/05/01 00:59:16;;;;;;;43.97;24.58;;;;;;;4.29;93.77;98513.50;5051091;28;20095;-70
2021/05/01 01:01:50;;;;;;;45.28;23.45;;;;;;;4.26;93.91;98522.69;5033236;28;20065;-70
2021/05/01 01:04:16;;;;;;;46.33;24.20;;;;;;;4.21;94.00;98524.22;5061946;28;20028;-70
2021/05/01 01:06:42;;;;;;;42.10;22.80;;;;;;;4.12;94.31;98515.38;5045613;28;20028;-70
2021/05/01 01:09:08;;;;;;;39.72;22.10;;;;;;;3.99;94.62;98507.84;5037776;28;20078;-72
2021/05/01 01:11:35;;;;;;;47.10;24.60;;;;;;;3.90;94.48;98500.81;5053834;28;20173;-69
2021/05/01 01:14:01;;;;;;;42.67;23.25;;;;;;;3.81;93.95;98501.84;5051436;28;20025;-70
2021/05/01 01:16:29;;;;;;;45.88;24.75;;;;;;;3.85;94.33;98513.88;5051252;28;20025;-69
2021/05/01 01:18:55;;;;;;;47.42;25.00;;;;;;;3.79;94.16;98502.00;5033090;28;20401;-70
2021/05/01 01:21:21;;;;;;;43.05;23.55;;;;;;;3.79;94.94;98517.22;5051162;28;20362;-70
2021/05/01 01:23:46;;;;;;;41.47;22.77;;;;;;;3.78;94.39;98528.94;5049714;28;20021;-70
2021/05/01 01:26:12;;;;;;;45.63;24.58;;;;;;;3.72;94.98;98519.72;5063499;28;20379;-70
2021/05/01 01:28:37;;;;;;;55.08;26.15;;;;;;;3.76;95.22;98507.69;5053449;28;20036;-69
2021/05/01 01:31:03;;;;;;;45.65;24.38;;;;;;;3.66;95.16;98499.81;5059374;28;20033;-70
2021/05/01 01:33:28;;;;;;;50.30;24.55;;;;;;;3.64;95.07;98498.31;5051988;28;20033;-70
2021/05/01 01:35:53;;;;;;;55.95;27.88;;;;;;;3.90;95.62;98501.69;5051205;28;20036;-69
2021/05/01 01:38:18;;;;;;;52.58;26.02;;;;;;;3.78;95.49;98484.28;5051101;28;20429;-70
2021/05/01 01:40:44;;;;;;;48.35;24.45;;;;;;;4.02;94.76;98507.50;5059200;28;20038;-70
2021/05/01 01:43:09;;;;;;;46.28;23.75;;;;;;;4.10;95.35;98512.84;5058019;28;20214;-69
2021/05/01 01:45:35;;;;;;;39.55;22.80;;;;;;;3.99;94.85;98510.53;5061553;28;20033;-70
2021/05/01 01:48:01;;;;;;;41.47;23.05;;;;;;;3.94;94.80;98507.53;5054405;28;20033;-70
2021/05/01 01:50:27;;;;;;;44.13;23.27;;;;;;;3.87;94.79;98501.16;5055305;28;20052;-69
2021/05/01 01:52:54;;;;;;;47.42;24.05;;;;;;;3.92;94.71;98522.91;5069888;28;20043;-70
2021/05/01 01:55:21;;;;;;;45.88;24.83;;;;;;;3.91;94.75;98521.25;5067039;28;20025;-69
2021/05/01 01:57:47;;;;;;;46.15;24.77;;;;;;;4.06;94.77;98514.22;5050862;28;20052;-69
2021/05/01 02:00:19;;;;;;;47.90;24.60;;;;;;;4.15;94.84;98513.19;5051301;28;20097;-69
2021/05/01 02:02:44;;;;;;;44.70;23.65;;;;;;;4.15;94.73;98502.47;5033160;28;20032;-69
2021/05/01 02:05:10;;;;;;;41.38;22.65;;;;;;;4.23;93.92;98503.47;5032948;28;20037;-70
2021/05/01 02:07:36;;;;;;;39.90;21.90;;;;;;;4.15;93.81;98496.28;5030800;28;20693;-69
2021/05/01 02:10:04;;;;;;;39.72;22.52;;;;;;;4.11;93.84;98501.16;5050417;28;20032;-70
2021/05/01 02:12:33;;;;;;;42.95;22.52;;;;;;;4.06;94.00;98508.84;5053236;28;20116;-70
2021/05/01 02:14:58;;;;;;;48.17;24.85;;;;;;;4.11;93.68;98524.38;5034640;28;20028;-69
2021/05/01 02:17:23;;;;;;;66.20;25.95;;;;;;;3.96;94.16;98510.88;5046417;28;20119;-71
2021/05/01 02:19:48;;;;;;;49.75;25.77;;;;;;;3.97;93.94;98528.59;5058334;28;20032;-70
2021/05/01 02:22:14;;;;;;;67.20;28.08;;;;;;;4.03;94.30;98519.88;5073677;28;20039;-70
2021/05/01 02:24:39;;;;;;;62.22;29.25;;;;;;;4.02;94.52;98502.16;5052622;28;20032;-69
2021/05/01 02:27:05;;;;;;;60.70;28.60;;;;;;;4.02;94.86;98504.84;5040013;28;20029;-70
2021/05/01 02:29:30;;;;;;;61.35;30.40;;;;;;;4.01;94.90;98500.50;5055246;28;20055;-69
2021/05/01 02:31:55;;;;;;;76.00;28.13;;;;;;;4.07;95.38;98507.84;5037765;28;20469;-69
2021/05/01 02:34:20;;;;;;;65.47;29.10;;;;;;;4.07;95.19;98509.69;5035954;28;20455;-70
2021/05/01 02:36:46;;;;;;;64.35;28.35;;;;;;;4.07;95.18;98505.16;5053991;28;20025;-70
2021/05/01 02:39:11;;;;;;;53.85;26.20;;;;;;;4.10;95.33;98498.63;5053414;28;20078;-70
2021/05/01 02:41:36;;;;;;;50.95;25.65;;;;;;;4.12;94.79;98497.47;5051937;28;20037;-70
2021/05/01 02:44:02;;;;;;;53.42;27.50;;;;;;;4.02;94.96;98475.38;5056396;28;20028;-69
2021/05/01 02:46:27;;;;;;;61.38;25.40;;;;;;;4.01;94.28;98486.25;5055912;28;20111;-69
2021/05/01 02:48:53;;;;;;;47.83;24.38;;;;;;;4.04;94.58;98489.44;5073935;28;20394;-70
2021/05/01 02:51:18;;;;;;;53.10;26.73;;;;;;;4.05;95.50;98474.22;5055278;28;20028;-69
2021/05/01 02:53:43;;;;;;;46.63;25.20;;;;;;;4.12;94.94;98477.88;5055864;28;20035;-69
2021/05/01 02:56:08;;;;;;;44.10;23.55;;;;;;;4.15;95.12;98478.38;5070994;28;20031;-70
2021/05/01 02:58:34;;;;;;;56.92;23.45;;;;;;;3.97;94.24;98459.00;5053472;28;20024;-70
2021/05/01 03:00:59;;;;;;;52.20;24.85;;;;;;;4.00;94.21;98469.38;5049452;28;20025;-70
2021/05/01 03:03:25;;;;;;;49.33;25.80;;;;;;;4.17;94.42;98467.50;5073821;28;20024;-71
2021/05/01 03:05:50;;;;;;;57.13;27.40;;;;;;;4.04;94.14;98449.28;5054736;28;20474;-69
2021/05/01 03:08:15;;;;;;;81.07;25.30;;;;;;;4.00;93.84;98450.63;5041441;28;20052;-70
2021/05/01 03:10:41;;;;;;;88.18;25.35;;;;;;;3.93;94.01;98433.59;5059553;28;20029;-72
2021/05/01 03:13:06;;;;;;;78.53;24.65;;;;;;;3.97;94.17;98455.50;5053469;28;20115;-69
2021/05/01 03:15:31;;;;;;;67.15;23.90;;;;;;;3.93;93.82;98455.00;5056655;28;20025;-70
2021/05/01 03:17:57;;;;;;;83.18;27.98;;;;;;;3.86;94.03;98445.97;5050529;28;20077;-70
2021/05/01 03:20:22;;;;;;;53.75;25.83;;;;;;;3.77;94.27;98446.97;5055088;28;20025;-70
2021/05/01 03:22:48;;;;;;;49.60;25.52;;;;;;;3.67;94.36;98447.16;5055315;28;20486;-70
2021/05/01 03:25:15;;;;;;;50.33;26.65;;;;;;;3.65;94.63;98444.66;5053794;28;20116;-70
2021/05/01 03:27:41;;;;;;;49.95;24.65;;;;;;;3.61;94.45;98423.75;5035367;28;20087;-70
2021/05/01 03:30:10;;;;;;;45.72;24.58;;;;;;;3.56;94.56;98412.72;5052959;28;20032;-70
2021/05/01 03:32:36;;;;;;;45.03;23.00;;;;;;;3.48;94.36;98432.28;5035317;28;20479;-70
2021/05/01 03:35:01;;;;;;;47.95;23.77;;;;;;;3.21;94.75;98415.56;5052980;28;20029;-70
2021/05/01 03:37:27;;;;;;;43.47;22.23;;;;;;;3.33;94.96;98441.97;5035084;28;20037;-70
2021/05/01 03:39:52;;;;;;;48.47;23.40;;;;;;;3.31;94.81;98433.28;5034634;28;20052;-70
2021/05/01 03:42:18;;;;;;;58.75;25.55;;;;;;;3.39;94.95;98426.09;5052946;28;20029;-71
2021/05/01 03:44:44;;;;;;;48.35;25.23;;;;;;;3.57;95.44;98417.91;5052537;28;20025;-71
2021/05/01 03:47:09;;;;;;;52.58;25.27;;;;;;;3.65;95.74;98422.41;5052953;28;20079;-70
2021/05/01 03:49:34;;;;;;;45.85;24.00;;;;;;;3.76;95.72;98442.63;5053437;28;20039;-70
2021/05/01 03:52:00;;;;;;;49.33;24.35;;;;;;;3.79;95.52;98451.16;5021675;28;20017;-71
2021/05/01 03:54:25;;;;;;;43.75;23.00;;;;;;;3.87;95.14;98453.00;5034563;28;20025;-70
2021/05/01 03:56:50;;;;;;;50.47;22.77;;;;;;;3.76;94.78;98446.16;5052727;28;20146;-70
2021/05/01 03:59:16;;;;;;;45.45;23.05;;;;;;;3.86;94.93;98460.19;5034301;28;20450;-70
2021/05/01 04:01:41;;;;;;;48.20;23.67;;;;;;;3.89;94.78;98449.13;5051855;28;20482;-70
2021/05/01 04:04:09;;;;;;;47.08;23.67;;;;;;;3.86;94.69;98438.78;5052381;28;20037;-70
2021/05/01 04:06:35;;;;;;;43.63;23.13;;;;;;;3.86;94.92;98445.97;5069781;28;20020;-70
2021/05/01 04:09:01;;;;;;;47.17;22.38;;;;;;;3.94;94.55;98452.16;5045522;28;20462;-70
2021/05/01 04:11:26;;;;;;;38.70;21.75;;;;;;;3.95;94.24;98447.63;5056507;28;20494;-71
2021/05/01 04:13:52;;;;;;;57.95;24.55;;;;;;;4.03;94.46;98465.50;5051615;28;20079;-70
2021/05/01 04:16:18;;;;;;;54.15;23.92;;;;;;;4.01;93.54;98457.66;5052098;28;20020;-70
2021/05/01 04:18:48;;;;;;;39.63;22.10;;;;;;;4.04;93.64;98465.34;5034067;28;20032;-70
2021/05/01 04:21:16;;;;;;;37.70;20.35;;;;;;;4.04;94.07;98468.03;5052561;28;20070;-71
2021/05/01 04:23:43;;;;;;;42.97;21.00;;;;;;;3.99;93.69;98464.19;5052077;28;20032;-70
2021/05/01 04:26:09;;;;;;;44.60;22.17;;;;;;;4.02;92.97;98470.03;5041985;28;20279;-70
2021/05/01 04:28:34;;;;;;;38.22;21.35;;;;;;;4.08;93.23;98474.69;5054667;28;20032;-70
2021/05/01 04:31:00;;;;;;;41.55;19.98;;;;;;;4.08;93.37;98466.66;5065339;28;20028;-70
2021/05/01 04:33:25;;;;;;;33.20;19.92;;;;;;;4.07;92.91;98435.56;5051848;28;20036;-71
2021/05/01 04:35:51;;;;;;;48.05;20.15;;;;;;;4.16;92.19;98469.31;5033970;28;20028;-70
2021/05/01 04:38:17;;;;;;;35.78;20.13;;;;;;;4.15;92.74;98465.00;5054919;28;20482;-70
2021/05/01 04:40:43;;;;;;;47.53;22.15;;;;;;;4.22;92.52;98461.63;5033992;28;20021;-70
2021/05/01 04:43:11;;;;;;;61.05;23.48;;;;;;;4.27;91.97;98462.81;5051901;28;20040;-70
2021/05/01 04:45:37;;;;;;;51.45;24.05;;;;;;;4.24;91.68;98451.56;5052065;28;20028;-70
2021/05/01 04:48:04;;;;;;;40.47;21.42;;;;;;;4.38;91.42;98461.59;5051652;28;20025;-70
2021/05/01 04:50:29;;;;;;;39.63;20.95;;;;;;;4.39;91.41;98450.69;5087824;22;20083;-72
2021/05/01 04:52:54;;;;;;;43.92;22.95;;;;;;;4.47;91.55;98444.47;5076076;28;20111;-72
2021/05/01 04:55:20;;;;;;;36.75;20.13;;;;;;;4.52;91.51;98460.03;5058790;28;20388;-72
2021/05/01 04:57:47;;;;;;;43.47;22.80;;;;;;;4.65;91.27;98462.16;5091693;28;20028;-72
2021/05/01 05:00:14;;;;;;;55.53;22.48;;;;;;;4.74;90.74;98453.91;5090822;28;20034;-72
2021/05/01 05:02:39;;;;;;;53.78;23.17;;;;;;;4.69;90.55;98448.25;5084862;28;20115;-72
2021/05/01 05:05:09;;;;;;;54.53;24.67;;;;;;;4.66;90.19;98447.75;5070610;28;20120;-72
2021/05/01 05:07:34;;;;;;;42.33;22.75;;;;;;;4.91;88.78;98453.84;5072961;28;20035;-72
2021/05/01 05:09:59;;;;;;;42.15;21.80;;;;;;;4.81;89.06;98454.88;5072125;28;20024;-72
2021/05/01 05:12:25;;;;;;;41.10;22.42;;;;;;;5.01;88.43;98444.56;5074817;28;20069;-72
2021/05/01 05:14:51;;;;;;;49.97;22.48;;;;;;;4.96;88.59;98444.25;5074201;28;20021;-72
2021/05/01 05:17:16;;;;;;;66.03;22.83;;;;;;;4.98;87.53;98436.03;5090213;28;20024;-72
2021/05/01 05:19:42;;;;;;;77.65;20.67;;;;;;;5.08;86.67;98455.38;5091126;28;20019;-72
2021/05/01 05:22:07;;;;;;;124.85;21.55;;;;;;;5.03;87.42;98461.31;5093935;28;20390;-73
2021/05/01 05:24:32;;;;;;;80.55;22.95;;;;;;;5.01;87.83;98452.59;5093955;28;20035;-72
2021/05/01 05:26:58;;;;;;;43.97;22.02;;;;;;;5.08;88.07;98460.75;5074999;28;20021;-72
2021/05/01 05:29:23;;;;;;;39.28;22.48;;;;;;;5.36;88.08;98466.44;5093573;28;20030;-73
2021/05/01 05:31:49;;;;;;;37.53;21.70;;;;;;;5.49;87.89;98461.31;5091108;28;20036;-72
2021/05/01 05:34:14;;;;;;;55.13;21.65;;;;;;;5.35;87.38;98467.47;5095096;28;20024;-72
2021/05/01 05:36:40;;;;;;;73.20;21.60;;;;;;;5.17;86.93;98473.13;5093474;28;20040;-72
2021/05/01 05:39:07;;;;;;;34.47;19.60;;;;;;;5.35;87.53;98472.84;5056522;28;20154;-73
2021/05/01 05:41:32;;;;;;;41.28;22.08;;;;;;;5.47;87.78;98466.03;5072558;28;20028;-72
2021/05/01 05:43:58;;;;;;;47.03;20.85;;;;;;;5.58;86.38;98466.63;5073022;28;20024;-72
2021/05/01 05:46:23;;;;;;;33.42;20.58;;;;;;;5.80;86.54;98463.09;5068828;28;20024;-71
2021/05/01 05:48:49;;;;;;;35.75;20.20;;;;;;;5.74;85.70;98466.50;5074029;28;20539;-74
2021/05/01 05:51:14;;;;;;;37.20;19.80;;;;;;;6.03;85.54;98451.50;5061568;28;20058;-74
2021/05/01 05:53:39;;;;;;;33.38;19.02;;;;;;;6.49;83.40;98449.47;5077462;28;20078;-74
2021/05/01 05:56:07;;;;;;;37.50;20.42;;;;;;;6.42;83.08;98432.47;5076413;28;20025;-73
2021/05/01 05:58:33;;;;;;;36.70;21.20;;;;;;;6.34;83.32;98438.75;5076577;28;20107;-73
2021/05/01 06:00:59;;;;;;;39.00;21.30;;;;;;;6.61;84.32;98422.97;5075202;28;20055;-73
2021/05/01 06:03:25;;;;;;;45.92;21.20;;;;;;;6.93;82.05;98415.50;5075818;28;20024;-72
2021/05/01 06:05:55;;;;;;;33.22;20.77;;;;;;;7.33;81.36;98435.56;5075771;28;20492;-72
2021/05/01 06:08:21;;;;;;;29.55;18.55;;;;;;;7.84;80.01;98437.31;5075304;28;20024;-73
2021/05/01 06:10:47;;;;;;;31.98;19.40;;;;;;;8.00;79.83;98434.31;5074946;28;20044;-71
2021/05/01 06:13:16;;;;;;;29.05;18.58;;;;;;;8.11;79.94;98419.47;5077341;28;20027;-74
2021/05/01 06:15:42;;;;;;;30.13;18.30;;;;;;;8.26;78.52;98414.81;5074468;28;20108;-75
2021/05/01 06:18:10;;;;;;;33.05;19.23;;;;;;;8.39;77.43;98414.09;5090688;28;20054;-72
2021/05/01 06:20:36;;;;;;;30.13;18.83;;;;;;;8.88;75.35;98434.66;5091682;28;20032;-74
2021/05/01 06:23:01;;;;;;;27.83;17.83;;;;;;;9.27;74.70;98427.69;5094295;28;20067;-73
2021/05/01 06:25:27;;;;;;;26.08;17.20;;;;;;;10.13;70.87;98404.47;5093896;28;20024;-71
2021/05/01 06:27:54;;;;;;;32.47;19.27;;;;;;;11.04;67.95;98417.13;5094537;28;20020;-71
2021/05/01 06:30:22;;;;;;;32.22;18.17;;;;;;;11.23;67.51;98401.81;5092502;28;20021;-70
2021/05/01 06:32:48;;;;;;;27.58;18.15;;;;;;;11.86;65.10;98396.38;5092426;28;20024;-71
2021/05/01 06:35:15;;;;;;;32.63;19.30;;;;;;;12.64;64.15;98400.41;5090845;28;20076;-71
2021/05/01 06:37:40;;;;;;;30.55;19.40;;;;;;;12.69;62.20;98405.97;5093385;28;20033;-75
2021/05/01 06:40:14;;;;;;;28.42;18.63;;;;;;;12.29;62.67;98409.13;5092741;28;20088;-75
2021/05/01 06:42:43;;;;;;;26.13;17.80;;;;;;;12.50;61.60;98402.44;5092879;28;20492;-72
2021/05/01 06:45:09;;;;;;;27.30;17.85;;;;;;;12.82;61.41;98403.09;5087028;28;20099;-69
2021/05/01 06:47:37;;;;;;;26.77;16.92;;;;;;;12.48;62.71;98427.06;5081712;28;20040;-69
2021/05/01 06:50:09;;;;;;;27.08;18.58;;;;;;;12.76;61.85;98420.31;5074600;28;20389;-71
2021/05/01 06:52:39;;;;;;;26.80;18.30;;;;;;;12.50;60.08;98424.97;5056703;28;20109;-71
2021/05/01 06:55:06;;;;;;;28.65;19.35;;;;;;;12.02;63.45;98433.75;5073288;28;20023;-71
2021/05/01 06:57:32;;;;;;;29.20;19.23;;;;;;;12.09;64.92;98427.47;5055259;28;20186;-70
2021/05/01 06:59:59;;;;;;;25.85;17.58;;;;;;;12.70;62.63;98423.91;5067683;28;20031;-70
2021/05/01 07:02:28;;;;;;;27.25;18.65;;;;;;;12.57;63.16;98432.19;5054224;28;20485;-70
2021/05/01 07:04:55;;;;;;;24.98;17.52;;;;;;;12.54;61.18;98417.19;5069095;28;20040;-70
2021/05/01 07:07:22;;;;;;;27.77;19.38;;;;;;;13.34;59.99;98438.81;5067707;28;20021;-70
2021/05/01 07:09:48;;;;;;;23.55;16.63;;;;;;;14.02;59.01;98428.59;5065605;28;20498;-70
2021/05/01 07:12:14;;;;;;;24.30;15.43;;;;;;;13.68;56.05;98431.00;5063462;28;20056;-70
2021/05/01 07:14:43;;;;;;;21.90;14.38;;;;;;;12.89;57.54;98430.16;5065867;28;20413;-71
2021/05/01 07:17:09;;;;;;;23.20;15.32;;;;;;;13.05;59.02;98420.59;5067141;28;20024;-70
2021/05/01 07:19:34;;;;;;;19.67;14.52;;;;;;;13.43;58.59;98424.91;5067022;28;20517;-75
2021/05/01 07:22:01;;;;;;;22.17;15.65;;;;;;;13.18;58.25;98422.28;5073689;28;20051;-74
2021/05/01 07:24:27;;;;;;;22.25;16.45;;;;;;;12.74;60.04;98422.41;5055455;28;20628;-71
2021/05/01 07:26:55;;;;;;;23.63;15.57;;;;;;;12.47;60.50;98411.00;5071729;28;20029;-71
2021/05/01 07:29:21;;;;;;;25.15;16.98;;;;;;;12.70;59.87;98402.19;5056583;28;20489;-71
2021/05/01 07:31:47;;;;;;;25.00;16.58;;;;;;;12.60;59.66;98399.19;5058695;28;20043;-70
2021/05/01 07:34:20;;;;;;;20.98;15.38;;;;;;;12.73;59.86;98390.88;5070101;28;20029;-72
2021/05/01 07:36:47;;;;;;;22.83;15.90;;;;;;;12.34;59.10;98401.16;5056409;28;20029;-76
2021/05/01 07:39:13;;;;;;;24.08;15.70;;;;;;;12.57;60.26;98389.59;5072700;28;20048;-75
2021/05/01 07:41:41;;;;;;;25.90;16.73;;;;;;;12.49;60.09;98392.63;5068527;28;20566;-75
2021/05/01 07:44:09;;;;;;;24.85;15.40;;;;;;;12.69;61.78;98393.22;5072642;28;20040;-70
2021/05/01 07:46:37;;;;;;;25.02;15.93;;;;;;;12.57;61.25;98372.50;5072728;28;20036;-74
2021/05/01 07:49:04;;;;;;;21.95;15.27;;;;;;;12.47;60.94;98403.72;5071372;28;20474;-74
2021/05/01 07:51:34;;;;;;;22.95;16.10;;;;;;;12.68;61.22;98386.16;5072830;28;20036;-73
2021/05/01 07:53:59;;;;;;;22.10;15.35;;;;;;;12.65;61.68;98380.34;5075554;28;20023;-73
2021/05/01 07:56:25;;;;;;;21.27;16.02;;;;;;;12.52;62.40;98403.03;5093577;28;20020;-75
2021/05/01 07:58:50;;;;;;;23.27;16.40;;;;;;;12.46;62.26;98396.63;5091542;28;20093;-75
2021/05/01 08:01:15;;;;;;;26.52;17.10;;;;;;;12.52;61.33;98380.50;5072279;28;20031;-74
2021/05/01 08:03:41;;;;;;;22.90;16.27;;;;;;;12.75;60.27;98391.50;5070742;28;20493;-75
2021/05/01 08:06:06;;;;;;;23.48;16.15;;;;;;;12.68;62.49;98377.16;5046295;28;20029;-73
2021/05/01 08:08:31;;;;;;;22.70;16.13;;;;;;;12.47;62.85;98371.16;5072828;28;20050;-73
2021/05/01 08:10:57;;;;;;;24.02;16.33;;;;;;;12.52;62.26;98375.88;5072370;28;20050;-74
2021/05/01 08:13:22;;;;;;;22.55;16.65;;;;;;;11.80;63.40;98381.78;5072971;28;20381;-74
2021/05/01 08:15:47;;;;;;;25.90;16.63;;;;;;;11.98;64.77;98381.03;5071957;28;20032;-74
2021/05/01 08:18:13;;;;;;;23.70;16.00;;;;;;;11.78;63.29;98392.03;5065933;28;20430;-74
2021/05/01 08:20:38;;;;;;;24.52;17.33;;;;;;;11.73;63.20;98377.47;5069808;28;20497;-74
2021/05/01 08:23:04;;;;;;;24.73;17.13;;;;;;;11.48;63.02;98378.31;5068210;28;20085;-74
2021/05/01 08:25:29;;;;;;;28.30;17.75;;;;;;;11.18;66.15;98389.72;5073207;28;20029;-74
2021/05/01 08:27:56;;;;;;;24.63;17.27;;;;;;;11.16;66.18;98367.47;5070892;28;20382;-74
2021/05/01 08:30:22;;;;;;;22.60;16.05;;;;;;;11.38;64.74;98388.78;5072301;28;20020;-74
2021/05/01 08:32:48;;;;;;;24.42;15.93;;;;;;;11.45;65.30;98403.13;5056756;28;20021;-74
2021/05/01 08:35:14;;;;;;;24.25;16.58;;;;;;;11.18;65.92;98403.28;5070067;28;20085;-71
2021/05/01 08:37:40;;;;;;;24.92;17.05;;;;;;;11.07;66.36;98406.66;5072174;28;20028;-77
2021/05/01 08:40:07;;;;;;;26.08;15.70;;;;;;;11.02;65.93;98395.66;5055629;28;20024;-74
2021/05/01 08:42:32;;;;;;;24.85;17.27;;;;;;;10.53;67.84;98403.38;5054263;28;20059;-74
2021/05/01 08:45:04;;;;;;;24.60;16.83;;;;;;;10.49;66.91;98410.22;5064793;28;20113;-71
2021/05/01 08:47:33;;;;;;;25.55;17.25;;;;;;;10.45;66.77;98409.03;5067935;28;20051;-72
2021/05/01 08:50:04;;;;;;;24.77;16.40;;;;;;;10.19;68.81;98399.06;5053562;28;20028;-73
2021/05/01 08:52:29;;;;;;;26.95;17.63;;;;;;;10.21;67.81;98406.94;5076866;28;20107;-73
2021/05/01 08:54:55;;;;;;;25.58;17.63;;;;;;;10.06;67.25;98408.00;5071206;28;20146;-73
2021/05/01 08:57:29;;;;;;;27.35;16.92;;;;;;;9.88;68.91;98410.53;5053346;28;20035;-73
2021/05/01 08:59:55;;;;;;;25.52;17.30;;;;;;;9.88;68.82;98407.81;5071374;28;20029;-73
2021/05/01 09:02:24;;;;;;;27.40;16.88;;;;;;;9.88;69.11;98405.94;5072032;28;20064;-73
2021/05/01 09:04:51;;;;;;;25.25;17.20;;;;;;;9.83;68.65;98399.50;5070621;28;20035;-72
2021/05/01 09:07:17;;;;;;;27.58;17.38;;;;;;;9.82;69.12;98406.78;5072449;28;20028;-73
2021/05/01 09:09:58;;;;;;;28.33;17.77;;;;;;;9.84;69.15;98398.47;5069446;28;20394;-77
2021/05/01 09:12:38;;;;;;;29.17;18.63;;;;;;;9.87;68.08;98414.25;5066427;28;20024;-76
2021/05/01 09:15:07;;;;;;;24.55;17.23;;;;;;;9.74;68.26;98415.06;5066331;28;20248;-71
2021/05/01 09:17:34;;;;;;;26.38;17.48;;;;;;;9.83;68.70;98416.53;5071918;28;20493;-71
2021/05/01 09:20:18;;;;;;;29.42;18.05;;;;;;;9.86;69.67;98418.81;5071583;28;20036;-71
2021/05/01 09:22:53;;;;;;;31.83;18.65;;;;;;;9.93;71.00;98420.69;5073292;28;20377;-72
2021/05/01 09:25:18;;;;;;;28.23;19.13;;;;;;;10.08;70.77;98415.91;5073884;28;20362;-75
2021/05/01 09:28:03;;;;;;;32.50;20.55;;;;;;;10.12;70.97;98422.56;5079465;28;20111;-76
2021/05/01 09:30:31;;;;;;;32.33;19.77;;;;;;;10.27;71.19;98420.50;5076518;28;20074;-72
2021/05/01 09:33:18;;;;;;;30.88;20.33;;;;;;;10.40;70.59;98424.19;5075550;28;20055;-72
2021/05/01 09:35:47;;;;;;;35.30;20.83;;;;;;;10.47;70.90;98400.66;5065225;28;20097;-73
2021/05/01 09:38:13;;;;;;;31.17;21.83;;;;;;;10.53;70.78;98408.78;5054599;28;20158;-74
2021/05/01 09:40:44;;;;;;;31.13;20.92;;;;;;;10.58;71.99;98391.88;5064246;28;20075;-74
2021/05/01 09:43:09;;;;;;;33.05;20.88;;;;;;;10.69;71.05;98391.25;5049709;28;20028;-70
2021/05/01 09:45:37;;;;;;;29.92;20.42;;;;;;;10.89;70.61;98387.59;5075904;28;20025;-71
2021/05/01 09:48:11;;;;;;;35.97;22.38;;;;;;;10.94;70.87;98371.56;5076260;28;20082;-72
2021/05/01 09:50:36;;;;;;;31.65;20.50;;;;;;;11.11;71.31;98383.53;5073457;28;20034;-73
2021/05/01 09:53:05;;;;;;;30.67;21.48;;;;;;;11.31;70.71;98369.03;5072756;28;20024;-72
2021/05/01 09:55:45;;;;;;;34.35;22.10;;;;;;;11.27;70.98;98373.25;5073239;28;20044;-71
2021/05/01 09:58:12;;;;;;;34.47;22.45;;;;;;;11.24;71.11;98358.28;5074750;28;20490;-74
2021/05/01 10:00:38;;;;;;;32.22;21.98;;;;;;;11.41;69.80;98374.81;5074792;28;20442;-74
2021/05/01 10:03:03;;;;;;;29.60;20.60;;;;;;;11.47;69.59;98378.50;5074336;28;20051;-75
2021/05/01 10:05:29;;;;;;;32.92;21.55;;;;;;;11.52;69.12;98384.94;5073947;28;20107;-74
2021/05/01 10:07:56;;;;;;;31.90;20.50;;;;;;;11.52;67.81;98376.81;5060516;28;20024;-74
2021/05/01 10:10:22;;;;;;;34.80;19.92;;;;;;;11.56;68.25;98367.19;5074280;28;20944;-73
2021/05/01 10:12:48;;;;;;;30.77;20.00;;;;;;;11.55;68.07;98365.56;5075537;28;20112;-74
2021/05/01 10:15:20;;;;;;;31.55;20.38;;;;;;;11.70;67.66;98383.34;5074499;28;20028;-75
2021/05/01 10:17:48;;;;;;;31.48;19.27;;;;;;;11.67;67.27;98371.06;5060942;28;20032;-74
2021/05/01 10:20:17;;;;;;;30.42;19.80;;;;;;;11.78;66.70;98369.50;5074960;28;20628;-74
2021/05/01 10:22:43;;;;;;;;;;;;;;;11.62;67.53;98362.78;5067694;28;20055;-70
2021/05/01 10:25:18;;;;;;;34.05;20.42;;;;;;;11.66;67.56;98371.28;5075692;28;19918;-74
2021/05/01 10:27:53;;;;;;;28.75;20.13;;;;;;;11.69;67.33;98365.44;5073583;28;20681;-75
2021/05/01 10:30:34;;;;;;;30.63;20.27;;;;;;;11.59;68.23;98357.78;5070008;28;20120;-75
2021/05/01 10:36:08;;;;;;;32.05;20.33;;;;;;;12.04;67.12;98360.34;5074800;28;20020;-74
2021/05/01 10:38:35;;;;;;;29.83;19.45;;;;;;;12.41;66.36;98344.09;5071992;28;20040;-74
2021/05/01 10:41:07;;;;;;;28.70;19.58;;;;;;;12.75;64.32;98360.81;5065160;28;20077;-73
2021/05/01 10:43:35;;;;;;;25.88;18.42;;;;;;;12.79;63.15;98362.03;5072869;28;20678;-75
2021/05/01 10:46:06;;;;;;;28.80;19.20;;;;;;;12.73;63.31;98347.44;5069842;28;20578;-74
2021/05/01 10:48:47;;;;;;;26.42;18.25;;;;;;;13.06;63.34;98362.47;5051447;28;20115;-70
2021/05/01 10:51:19;;;;;;;26.17;17.67;;;;;;;12.90;60.12;98351.19;5097914;22;20677;-66
2021/05/01 10:53:44;;;;;;;30.10;18.40;;;;;;;13.55;61.24;98352.38;5079019;28;20024;-65
2021/05/01 10:56:12;;;;;;;26.25;18.00;;;;;;;13.68;60.76;98341.28;5067767;28;20493;-64
2021/05/01 10:58:41;;;;;;;27.58;19.23;;;;;;;14.11;57.91;98333.84;5067453;28;20086;-68
2021/05/01 11:01:35;;;;;;;24.85;17.85;;;;;;;14.51;56.67;98347.50;5071684;28;20055;-68
2021/05/01 11:04:04;;;;;;;26.83;17.63;;;;;;;14.44;57.56;98349.56;5056611;28;20029;-68
2021/05/01 11:06:36;;;;;;;;;;;;;;;14.15;57.96;98348.66;5032824;28;20025;-69
2021/05/01 11:09:06;;;;;;;25.35;17.20;;;;;;;13.76;59.82;98354.53;5015456;28;19916;-69
2021/05/01 11:11:35;;;;;;;27.63;18.17;;;;;;;14.15;59.60;98346.75;5045364;28;20032;-68
2021/05/01 11:14:14;;;;;;;28.73;17.27;;;;;;;14.16;59.71;98336.69;5036738;28;20034;-68
2021/05/01 11:16:51;;;;;;;24.73;17.10;;;;;;;14.16;58.80;98340.22;5051602;28;20033;-71
2021/05/01 11:19:19;;;;;;;24.92;16.92;;;;;;;14.39;58.45;98344.00;5051311;28;20033;-70
2021/05/01 11:21:46;;;;;;;20.85;15.18;;;;;;;14.49;57.60;98333.31;5014469;28;20071;-68
2021/05/01 11:24:13;;;;;;;25.83;17.77;;;;;;;14.41;58.35;98333.72;5034285;28;20040;-71